Time;durP1;ratioP1;P1;durP2;ratioP2;P2;SDS_P1;SDS_P2;PMS_P1;PMS_P2;Temp;Humidity;BMP_temperature;BMP_pressure;BME280_temperature;BME280_humidity;BME280_pressure;Samples;Min_cycle;Max_cycle;Signal;HPM_P1;HPM_P2
2021/06/01 00:00:45;;;;;;;2.87;2.67;;;;;;;15.28;47.07;95823.84;4961749;28;20232;-85
2021/06/01 00:03:11;;;;;;;3.60;3.00;;;;;;;15.28;47.08;95826.44;4961320;29;20755;-86
2021/06/01 00:05:36;;;;;;;6.00;2.70;;;;;;;15.26;47.02;95823.25;4960286;29;20248;-87
2021/06/01 00:08:03;;;;;;;3.37;3.03;;;;;;;15.20;47.57;95837.03;4961113;29;20205;-86
2021/06/01 00:10:30;;;;;;;3.10;2.80;;;;;;;15.21;47.49;95842.00;4960750;29;20213;-87
2021/06/01 00:12:56;;;;;;;3.10;2.80;;;;;;;15.23;47.36;95834.00;4961442;29;20201;-86
2021/06/01 00:15:22;;;;;;;3.70;3.10;;;;;;;15.23;47.19;95836.59;4960850;28;20259;-86
2021/06/01 00:17:48;;;;;;;3.83;3.27;;;;;;;15.26;46.97;95830.22;4961943;29;20200;-87
2021/06/01 00:20:16;;;;;;;2.90;2.70;;;;;;;15.26;47.22;95835.41;4961677;29;20787;-86
2021/06/01 00:22:42;;;;;;;4.40;2.90;;;;;;;15.14;47.61;95835.22;4961528;29;20221;-86
2021/06/01 00:25:09;;;;;;;4.67;3.73;;;;;;;15.00;48.35;95833.63;4960036;28;20237;-86
2021/06/01 00:27:37;;;;;;;3.00;2.70;;;;;;;14.95;48.60;95830.81;4961615;29;20212;-86
2021/06/01 00:30:04;;;;;;;2.80;2.50;;;;;;;14.92;48.26;95839.78;4959374;29;20433;-86
2021/06/01 00:32:30;;;;;;;6.20;3.30;;;;;;;14.79;49.36;95832.78;4958333;28;20232;-87
2021/06/01 00:34:56;;;;;;;2.87;2.63;;;;;;;14.80;49.30;95834.38;4957457;29;20217;-87
2021/06/01 00:37:21;;;;;;;3.17;2.70;;;;;;;14.83;49.05;95839.16;4939094;29;20213;-86
2021/06/01 00:39:47;;;;;;;3.17;2.87;;;;;;;14.81;49.78;95830.00;4954532;29;20209;-86
2021/06/01 00:42:13;;;;;;;3.00;2.70;;;;;;;14.80;50.04;95831.00;4959155;29;20639;-85
2021/06/01 00:44:41;;;;;;;2.77;2.57;;;;;;;14.84;49.17;95830.38;4958754;29;20224;-86
2021/06/01 00:47:07;;;;;;;3.23;2.93;;;;;;;14.83;49.81;95831.38;4959784;29;20204;-86
2021/06/01 00:49:33;;;;;;;2.67;2.47;;;;;;;14.84;49.56;95826.97;4959217;29;20295;-85
2021/06/01 00:51:59;;;;;;;2.90;2.60;;;;;;;14.83;49.83;95833.16;4958472;29;20217;-86
2021/06/01 00:54:25;;;;;;;3.30;2.90;;;;;;;14.90;49.37;95833.19;4959009;29;20217;-86
2021/06/01 00:56:51;;;;;;;3.13;2.83;;;;;;;14.87;49.36;95836.97;4959760;29;20586;-85
2021/06/01 00:59:18;;;;;;;3.40;3.10;;;;;;;14.77;49.75;95832.19;4959012;29;20197;-86
2021/06/01 01:01:46;;;;;;;3.23;3.00;;;;;;;14.67;49.90;95829.16;4958817;29;20248;-85
2021/06/01 01:04:12;;;;;;;2.97;2.77;;;;;;;14.48;50.90;95829.88;4959260;29;20220;-85
2021/06/01 01:06:49;;;;;;;3.00;2.80;;;;;;;14.39;51.90;95828.44;4960023;29;20207;-86
2021/06/01 01:09:17;;;;;;;3.93;2.70;;;;;;;14.40;51.36;95820.50;4958428;29;20283;-85
2021/06/01 01:11:55;;;;;;;3.57;2.87;;;;;;;14.51;51.22;95817.34;4958149;29;20239;-87
2021/06/01 01:14:26;;;;;;;2.90;2.67;;;;;;;14.61;50.73;95811.00;4958230;29;20236;-86
2021/06/01 01:16:58;;;;;;;3.00;2.80;;;;;;;14.43;51.83;95814.91;4958806;29;20204;-86
2021/06/01 01:20:01;;;;;;;3.00;2.70;;;;;;;14.34;52.05;95816.06;4958090;29;20211;-85
2021/06/01 01:22:28;;;;;;;5.30;3.07;;;;;;;14.27;51.83;95811.84;4958748;29;20408;-85
2021/06/01 01:25:05;;;;;;;3.33;3.00;;;;;;;14.10;52.15;95804.41;4959529;29;20232;-87
2021/06/01 01:27:42;;;;;;;3.00;2.80;;;;;;;14.15;52.04;95811.59;4959306;29;20207;-85
2021/06/01 01:30:15;;;;;;;2.97;2.77;;;;;;;14.26;52.25;95808.44;4940411;29;20701;-86
2021/06/01 01:32:51;;;;;;;6.10;3.10;;;;;;;14.31;51.75;95811.28;4958735;29;20239;-86
2021/06/01 01:35:20;;;;;;;3.20;2.90;;;;;;;14.30;51.80;95804.50;4959294;29;20311;-86
2021/06/01 01:37:49;;;;;;;3.77;2.70;;;;;;;14.29;52.07;95809.84;4939654;29;20205;-87
2021/06/01 01:40:16;;;;;;;2.97;2.77;;;;;;;14.30;52.52;95814.06;4941267;29;20297;-85
2021/06/01 01:42:49;;;;;;;3.97;2.70;;;;;;;14.33;52.13;95803.31;4960583;29;20212;-85
2021/06/01 01:45:21;;;;;;;3.70;2.80;;;;;;;14.27;52.74;95807.47;4960792;29;20272;-86
2021/06/01 01:50:37;;;;;;;4.83;2.73;;;;;;;14.16;53.49;95805.44;4960760;29;20275;-86
2021/06/01 01:53:03;;;;;;;2.63;2.43;;;;;;;14.01;53.86;95800.41;4959662;29;20204;-86
2021/06/01 01:55:29;;;;;;;3.70;3.00;;;;;;;14.02;53.37;95791.66;4960731;29;21790;-86
2021/06/01 01:57:56;;;;;;;3.10;2.90;;;;;;;14.04;53.50;95794.84;4960505;29;20288;-86
2021/06/01 02:00:23;;;;;;;4.93;2.90;;;;;;;13.99;53.48;95799.00;4960408;28;20197;-85
2021/06/01 02:02:49;;;;;;;3.50;3.13;;;;;;;13.87;54.34;95793.53;4960385;28;20208;-86
2021/06/01 02:05:15;;;;;;;2.97;2.77;;;;;;;13.80;54.74;95790.94;4959857;29;20224;-85
2021/06/01 02:07:42;;;;;;;3.40;3.10;;;;;;;13.69;55.22;95786.28;4960819;29;20201;-85
2021/06/01 02:10:10;;;;;;;2.87;2.67;;;;;;;13.70;54.84;95794.84;4960730;29;20913;-85
2021/06/01 02:12:36;;;;;;;3.30;3.00;;;;;;;13.77;54.81;95793.09;4959428;29;20739;-86
2021/06/01 02:15:04;;;;;;;3.60;2.90;;;;;;;13.66;55.04;95791.81;4959396;28;20618;-86
2021/06/01 02:17:30;;;;;;;3.63;3.10;;;;;;;13.50;55.65;95789.53;4959592;29;20201;-85
2021/06/01 02:19:56;;;;;;;3.20;3.00;;;;;;;13.43;55.29;95793.91;4959354;29;20200;-86
2021/06/01 02:23:46;;;;;;;4.20;3.10;;;;;;;13.41;55.80;95788.09;4960132;29;20289;-85
2021/06/01 02:25:31;;;;;;;3.10;2.80;;;;;;;13.37;56.21;95786.88;4959949;29;20615;-86
2021/06/01 02:28:02;;;;;;;3.67;3.20;;;;;;;13.36;56.18;95786.09;4959795;29;20256;-85
2021/06/01 02:30:31;;;;;;;3.20;3.00;;;;;;;13.33;56.00;95791.63;4960669;29;20232;-86
2021/06/01 02:33:00;;;;;;;3.30;3.00;;;;;;;13.37;55.81;95792.84;4959125;29;20619;-86
2021/06/01 02:35:29;;;;;;;3.30;2.97;;;;;;;13.25;55.67;95788.41;4954499;29;20300;-86
2021/06/01 02:37:58;;;;;;;3.90;2.87;;;;;;;13.25;55.84;95781.44;4940727;29;20205;-85
2021/06/01 02:40:26;;;;;;;3.60;3.07;;;;;;;13.13;56.36;95786.28;4950458;29;20613;-86
2021/06/01 02:42:53;;;;;;;3.40;3.10;;;;;;;13.08;57.17;95783.44;4959288;29;20240;-85
2021/06/01 02:45:21;;;;;;;4.40;2.60;;;;;;;13.11;56.75;95785.66;4959472;29;20216;-85
2021/06/01 02:47:51;;;;;;;3.87;3.47;;;;;;;13.14;56.82;95780.13;4959459;28;20220;-86
2021/06/01 02:50:20;;;;;;;3.63;3.20;;;;;;;13.09;56.71;95784.25;4963784;29;20568;-86
2021/06/01 02:52:49;;;;;;;4.37;3.10;;;;;;;13.10;56.42;95783.25;4944478;29;20198;-86
2021/06/01 02:55:17;;;;;;;3.90;3.47;;;;;;;13.00;57.13;95787.97;4952395;29;20227;-86
2021/06/01 02:57:45;;;;;;;6.17;3.17;;;;;;;12.91;57.52;95791.66;4962533;28;20591;-86
2021/06/01 03:00:16;;;;;;;3.50;3.20;;;;;;;12.82;57.80;95785.03;4962630;29;20208;-86
2021/06/01 03:02:42;;;;;;;3.50;3.20;;;;;;;12.91;56.92;95789.06;4962604;29;20212;-86
2021/06/01 03:05:09;;;;;;;3.63;3.10;;;;;;;13.00;56.88;95795.72;4961758;29;20221;-86
2021/06/01 03:07:37;;;;;;;3.60;3.07;;;;;;;13.00;57.63;95786.19;4961570;29;20201;-86
2021/06/01 03:10:06;;;;;;;3.77;3.23;;;;;;;12.83;58.26;95778.88;4962763;29;20201;-87
2021/06/01 03:12:39;;;;;;;3.40;3.10;;;;;;;12.77;58.43;95791.53;4962895;29;20201;-87
2021/06/01 03:15:09;;;;;;;3.30;3.00;;;;;;;12.79;57.91;95792.16;4961987;28;20239;-86
2021/06/01 03:17:34;;;;;;;3.50;3.20;;;;;;;12.83;58.23;95789.19;4954569;29;20193;-85
2021/06/01 03:20:00;;;;;;;3.47;3.17;;;;;;;12.75;58.09;95790.91;4956006;29;20224;-85
2021/06/01 03:22:27;;;;;;;3.60;3.30;;;;;;;12.67;58.89;95792.84;4961545;29;20205;-86
2021/06/01 03:24:53;;;;;;;4.17;3.77;;;;;;;12.62;58.62;95784.84;4961971;29;20223;-86
2021/06/01 03:27:19;;;;;;;3.73;3.43;;;;;;;12.52;58.77;95789.47;4962433;29;20204;-85
2021/06/01 03:29:46;;;;;;;3.60;3.30;;;;;;;12.48;59.03;95796.81;4961265;29;20211;-85
2021/06/01 03:32:13;;;;;;;4.13;3.37;;;;;;;12.45;59.19;95790.22;4959678;28;20240;-86
2021/06/01 03:34:39;;;;;;;4.60;3.87;;;;;;;12.44;59.54;95788.63;4961329;29;20228;-86
2021/06/01 03:37:05;;;;;;;4.30;3.43;;;;;;;12.29;60.28;95792.25;4961559;29;20205;-86
2021/06/01 03:39:32;;;;;;;5.17;3.70;;;;;;;12.23;60.35;95798.91;4961625;29;20217;-86
2021/06/01 03:41:58;;;;;;;4.80;3.40;;;;;;;12.30;59.99;95791.25;4960678;29;20634;-85
2021/06/01 03:44:25;;;;;;;3.67;3.20;;;;;;;12.34;59.76;95793.28;4959919;29;20934;-85
2021/06/01 03:46:51;;;;;;;4.10;3.27;;;;;;;12.47;60.06;95792.63;4961544;29;20205;-86
2021/06/01 03:49:18;;;;;;;3.50;3.10;;;;;;;12.52;59.79;95786.91;4955283;29;20678;-85
2021/06/01 03:51:44;;;;;;;5.07;3.47;;;;;;;12.67;59.69;95785.88;4959696;29;20221;-86
2021/06/01 03:54:10;;;;;;;3.50;3.20;;;;;;;12.73;59.73;95786.91;4960235;29;20205;-85
2021/06/01 03:56:36;;;;;;;3.73;3.40;;;;;;;12.74;59.45;95789.31;4960012;29;20205;-86
2021/06/01 03:59:02;;;;;;;4.50;3.60;;;;;;;12.80;59.08;95785.19;4960856;28;20274;-85
2021/06/01 04:01:28;;;;;;;3.77;3.47;;;;;;;12.88;58.86;95779.91;4958817;29;20193;-85
2021/06/01 04:03:54;;;;;;;4.30;3.50;;;;;;;12.98;58.34;95787.34;4959660;29;20208;-85
2021/06/01 04:06:22;;;;;;;3.63;3.33;;;;;;;12.95;58.69;95787.72;4958941;29;20197;-85
2021/06/01 04:08:48;;;;;;;5.93;3.53;;;;;;;12.97;59.16;95781.38;4960396;29;20213;-86
2021/06/01 04:11:14;;;;;;;3.77;3.20;;;;;;;12.94;58.82;95786.09;4960798;29;20319;-84
2021/06/01 04:13:40;;;;;;;4.17;3.77;;;;;;;12.85;60.19;95785.47;4961020;28;20629;-86
2021/06/01 04:16:07;;;;;;;3.40;3.10;;;;;;;12.99;59.19;95791.53;4961193;29;20221;-86
2021/06/01 04:18:33;;;;;;;5.50;3.27;;;;;;;13.01;59.52;95785.19;4960580;29;20209;-86
2021/06/01 04:21:00;;;;;;;4.73;3.60;;;;;;;13.11;59.49;95793.41;4961354;29;20217;-86
2021/06/01 04:23:27;;;;;;;6.53;3.57;;;;;;;13.18;59.46;95793.50;4960947;28;20204;-85
2021/06/01 04:25:53;;;;;;;5.00;3.57;;;;;;;13.26;58.77;95795.97;4960810;29;20900;-86
2021/06/01 04:28:19;;;;;;;5.87;3.80;;;;;;;13.26;58.99;95805.50;4961083;29;20386;-85
2021/06/01 04:30:46;;;;;;;4.33;3.80;;;;;;;13.37;58.61;95803.19;4960321;29;20220;-86
2021/06/01 04:33:12;;;;;;;6.57;4.00;;;;;;;13.41;59.26;95791.50;4959511;28;20261;-85
2021/06/01 04:35:38;;;;;;;4.27;3.87;;;;;;;13.59;58.99;95800.56;4953312;29;20313;-85
2021/06/01 04:38:04;;;;;;;7.33;4.00;;;;;;;13.57;58.57;95794.78;4953918;29;20197;-86
2021/06/01 04:40:32;;;;;;;6.87;4.07;;;;;;;13.73;57.44;95792.69;4959601;29;20221;-85
2021/06/01 04:42:58;;;;;;;9.60;4.70;;;;;;;13.75;56.33;95798.47;4959890;29;20205;-86
2021/06/01 04:45:24;;;;;;;5.63;4.57;;;;;;;13.89;56.30;95788.97;4952397;29;20296;-85
2021/06/01 04:47:52;;;;;;;20.50;14.83;;;;;;;14.13;56.69;95801.44;4957012;28;20217;-85
2021/06/01 04:50:18;;;;;;;8.93;7.33;;;;;;;14.40;54.48;95793.78;4955979;29;20192;-86
2021/06/01 04:52:45;;;;;;;10.50;8.20;;;;;;;14.47;53.85;95805.78;4953796;28;20239;-86
2021/06/01 04:55:14;;;;;;;4.73;4.13;;;;;;;14.45;53.36;95788.81;4955762;28;20323;-86
2021/06/01 04:57:42;;;;;;;4.30;3.90;;;;;;;14.46;53.39;95787.81;4959952;29;20197;-87
2021/06/01 05:00:11;;;;;;;10.17;3.90;;;;;;;14.38;52.79;95788.78;4959901;29;20370;-87
2021/06/01 05:02:38;;;;;;;4.40;4.00;;;;;;;14.38;53.20;95788.78;4956242;29;20190;-85
2021/06/01 05:05:04;;;;;;;4.13;3.73;;;;;;;14.49;53.02;95787.44;4959875;29;20224;-85
2021/06/01 05:07:33;;;;;;;4.70;3.80;;;;;;;14.49;52.27;95790.81;4955536;29;20291;-85
2021/06/01 05:10:00;;;;;;;4.30;3.90;;;;;;;14.46;52.35;95786.03;4960199;28;20201;-86
2021/06/01 05:12:27;;;;;;;4.37;3.63;;;;;;;14.42;51.86;95779.66;4958294;28;20224;-85
2021/06/01 05:14:54;;;;;;;5.67;4.00;;;;;;;14.37;51.97;95787.19;4954103;29;20616;-85
2021/06/01 05:17:21;;;;;;;4.23;3.70;;;;;;;14.53;52.44;95791.25;4959459;29;20207;-85
2021/06/01 05:19:47;;;;;;;4.30;3.90;;;;;;;14.55;51.97;95789.25;4961229;29;20232;-86
2021/06/01 05:22:13;;;;;;;4.43;4.03;;;;;;;14.45;51.92;95792.22;4959540;29;20688;-86
2021/06/01 05:24:39;;;;;;;4.20;3.80;;;;;;;14.49;51.93;95788.25;4960572;29;20224;-85
2021/06/01 05:27:06;;;;;;;6.90;3.53;;;;;;;14.55;52.17;95788.47;4960395;29;20235;-86
2021/06/01 05:29:34;;;;;;;6.30;3.80;;;;;;;14.59;51.76;95785.28;4956857;29;20197;-86
2021/06/01 05:32:06;;;;;;;4.47;3.47;;;;;;;14.55;51.13;95794.44;4954945;29;20216;-87
2021/06/01 05:34:35;;;;;;;4.73;3.60;;;;;;;14.71;50.27;95793.28;4959731;29;20233;-87
2021/06/01 05:37:02;;;;;;;4.13;3.30;;;;;;;14.68;50.38;95794.47;4958295;29;20208;-87
2021/06/01 05:39:28;;;;;;;5.07;3.77;;;;;;;14.67;49.93;95784.28;4959744;29;20205;-86
2021/06/01 05:41:54;;;;;;;3.80;3.40;;;;;;;14.73;49.94;95780.91;4957754;29;20599;-86
2021/06/01 05:44:20;;;;;;;3.73;3.40;;;;;;;14.75;49.61;95784.13;4956617;29;20315;-87
2021/06/01 05:46:46;;;;;;;3.60;3.30;;;;;;;14.83;49.68;95776.94;4958453;29;20201;-88
2021/06/01 05:49:14;;;;;;;5.50;3.30;;;;;;;14.86;49.20;95776.53;4946685;29;20276;-88
2021/06/01 05:51:40;;;;;;;4.17;3.50;;;;;;;14.86;49.45;95776.53;4942888;29;20252;-86
2021/06/01 05:54:12;;;;;;;3.13;2.83;;;;;;;14.91;49.18;95782.94;4957246;29;20204;-86
2021/06/01 05:56:41;;;;;;;3.73;3.43;;;;;;;15.01;48.62;95778.16;4957849;29;20268;-85
2021/06/01 05:59:09;;;;;;;3.10;2.80;;;;;;;15.16;49.55;95776.16;4959230;29;20203;-87
2021/06/01 06:01:35;;;;;;;4.93;3.50;;;;;;;15.22;49.28;95777.94;4958947;29;20201;-88
2021/06/01 06:04:01;;;;;;;3.43;3.13;;;;;;;15.34;47.71;95778.16;4958455;29;20205;-86
2021/06/01 06:06:29;;;;;;;6.13;3.60;;;;;;;15.36;47.46;95778.75;4957566;29;20204;-86
2021/06/01 06:08:55;;;;;;;4.10;2.87;;;;;;;15.42;48.36;95772.72;4959100;29;20264;-86
2021/06/01 06:11:23;;;;;;;3.27;2.90;;;;;;;15.53;48.39;95772.94;4957862;29;20217;-86
2021/06/01 06:13:49;;;;;;;4.47;2.87;;;;;;;15.65;47.27;95775.72;4958715;29;20593;-86
2021/06/01 06:16:19;;;;;;;3.27;2.97;;;;;;;15.74;46.95;95777.13;4958828;29;20217;-88
2021/06/01 06:18:51;;;;;;;3.20;2.90;;;;;;;15.82;47.60;95774.28;4950267;29;20673;-86
2021/06/01 06:21:17;;;;;;;3.97;3.13;;;;;;;15.83;46.61;95778.47;4955648;29;20292;-86
2021/06/01 06:23:44;;;;;;;3.63;2.50;;;;;;;15.74;46.16;95787.50;4957812;29;20197;-86
2021/06/01 06:26:15;;;;;;;3.10;2.60;;;;;;;15.79;46.33;95785.06;4958534;29;20232;-87
2021/06/01 06:28:41;;;;;;;2.97;2.67;;;;;;;15.88;46.54;95776.06;4958164;29;20292;-87
2021/06/01 06:31:08;;;;;;;3.90;2.63;;;;;;;15.94;46.25;95774.47;4957800;29;20224;-86
2021/06/01 06:33:34;;;;;;;3.13;2.83;;;;;;;16.10;46.96;95775.81;4958280;28;20296;-87
2021/06/01 06:36:02;;;;;;;2.87;2.60;;;;;;;16.23;47.02;95776.53;4949397;29;20228;-86
2021/06/01 06:38:30;;;;;;;2.83;2.63;;;;;;;16.29;45.84;95769.72;4943923;29;20231;-84
2021/06/01 06:41:11;;;;;;;4.10;2.95;;;;;;;16.27;45.88;95770.94;4957813;29;20228;-85
2021/06/01 06:43:38;;;;;;;3.55;2.95;;;;;;;16.36;46.43;95765.28;4950464;29;20215;-86
2021/06/01 06:46:08;;;;;;;3.00;2.37;;;;;;;16.42;45.26;95764.44;4952914;28;20229;-88
2021/06/01 06:48:34;;;;;;;3.90;2.47;;;;;;;16.53;44.80;95761.22;4954612;29;20633;-87
2021/06/01 06:51:01;;;;;;;2.88;2.40;;;;;;;16.60;45.47;95763.75;4956151;29;20225;-88
2021/06/01 06:53:27;;;;;;;2.80;2.60;;;;;;;16.59;45.07;95769.94;4950091;29;20688;-86
2021/06/01 06:55:53;;;;;;;4.43;2.78;;;;;;;16.48;44.27;95771.44;4949574;29;20228;-85
2021/06/01 06:58:22;;;;;;;4.00;2.88;;;;;;;16.52;44.94;95772.63;4943706;29;20688;-86
2021/06/01 07:00:48;;;;;;;3.15;2.65;;;;;;;16.62;44.96;95766.94;4951386;29;20197;-86
2021/06/01 07:03:14;;;;;;;3.65;2.85;;;;;;;16.65;43.64;95769.16;4950806;29;20204;-86
2021/06/01 07:05:40;;;;;;;5.43;2.53;;;;;;;16.72;44.24;95772.53;4951447;29;20221;-87
2021/06/01 07:08:06;;;;;;;4.13;2.85;;;;;;;16.91;45.46;95776.81;4952008;29;20324;-88
2021/06/01 07:10:32;;;;;;;3.75;2.60;;;;;;;16.96;44.66;95775.34;4953841;28;20231;-86
2021/06/01 07:13:01;;;;;;;3.75;2.50;;;;;;;17.05;45.04;95771.50;4951064;28;20213;-87
2021/06/01 07:15:41;;;;;;;6.65;2.70;;;;;;;17.05;44.28;95772.28;4950434;29;20229;-86
2021/06/01 07:18:07;;;;;;;4.30;2.80;;;;;;;17.14;43.54;95770.19;4952602;28;20209;-87
2021/06/01 07:20:33;;;;;;;3.78;2.80;;;;;;;17.09;42.95;95776.06;4953038;29;20209;-87
2021/06/01 07:23:01;;;;;;;3.60;2.85;;;;;;;17.06;43.68;95773.88;4952583;28;20745;-87
2021/06/01 07:25:28;;;;;;;4.30;2.70;;;;;;;17.11;44.04;95775.84;4955263;29;20224;-87
2021/06/01 07:27:54;;;;;;;2.67;2.47;;;;;;;17.22;44.30;95770.75;4954861;29;20276;-86
2021/06/01 07:30:20;;;;;;;2.88;2.53;;;;;;;17.36;44.43;95773.22;4953332;28;20207;-87
2021/06/01 07:32:48;;;;;;;3.08;2.60;;;;;;;17.44;44.72;95775.56;4953170;29;20304;-89
2021/06/01 07:35:19;;;;;;;3.92;2.58;;;;;;;17.49;43.12;95768.72;4954791;28;20221;-88
2021/06/01 07:37:45;;;;;;;4.90;2.83;;;;;;;17.58;42.10;95767.41;4957307;29;20208;-87
2021/06/01 07:40:16;;;;;;;2.75;2.55;;;;;;;17.56;41.43;95769.44;4955986;29;20208;-89
2021/06/01 07:42:42;;;;;;;3.95;2.50;;;;;;;17.67;41.79;95757.56;4955722;29;20204;-89
2021/06/01 07:45:10;;;;;;;2.45;2.25;;;;;;;17.68;41.57;95761.75;4955940;29;20673;-89
2021/06/01 07:47:38;;;;;;;2.80;2.60;;;;;;;17.69;40.18;95760.75;4952324;28;20275;-89
2021/06/01 07:50:07;;;;;;;2.55;2.35;;;;;;;17.77;40.05;95757.84;4958376;29;20286;-87
2021/06/01 07:52:33;;;;;;;2.50;2.30;;;;;;;17.75;39.55;95762.47;4957796;28;20224;-88
2021/06/01 07:54:59;;;;;;;3.67;2.30;;;;;;;17.86;39.83;95763.56;4957559;28;20575;-88
2021/06/01 07:57:25;;;;;;;3.55;2.50;;;;;;;17.88;38.79;95757.13;4958921;29;20209;-88
2021/06/01 07:59:53;;;;;;;2.55;2.35;;;;;;;17.97;39.06;95760.22;4959738;29;20237;-88
2021/06/01 08:02:19;;;;;;;3.63;2.40;;;;;;;18.07;39.12;95747.50;4959657;29;20232;-88
2021/06/01 08:04:45;;;;;;;2.42;2.30;;;;;;;18.07;39.38;95757.91;4958551;29;20292;-87
2021/06/01 08:07:13;;;;;;;3.50;2.50;;;;;;;18.16;38.98;95753.97;4956829;29;20295;-87
2021/06/01 08:09:39;;;;;;;2.55;2.30;;;;;;;18.25;38.83;95754.47;4957081;29;20580;-87
2021/06/01 08:12:07;;;;;;;3.88;2.67;;;;;;;18.30;38.40;95742.34;4954649;29;20253;-86
2021/06/01 08:14:33;;;;;;;4.47;2.60;;;;;;;18.58;39.44;95741.78;4961816;29;20704;-87
2021/06/01 08:17:01;;;;;;;2.70;2.47;;;;;;;18.75;38.97;95744.59;4959931;29;20228;-87
2021/06/01 08:19:30;;;;;;;2.53;2.33;;;;;;;18.93;37.87;95734.06;4944690;29;20335;-88
2021/06/01 08:21:58;;;;;;;3.42;2.70;;;;;;;19.16;36.18;95732.50;4954572;29;20248;-87
2021/06/01 08:24:26;;;;;;;3.25;2.10;;;;;;;19.30;36.66;95739.88;4956656;28;20229;-86
2021/06/01 08:26:54;;;;;;;2.30;2.10;;;;;;;19.47;36.89;95747.84;4959285;29;20208;-88
2021/06/01 08:29:25;;;;;;;2.60;2.40;;;;;;;19.60;36.29;95744.25;4959738;29;20208;-87
2021/06/01 08:31:56;;;;;;;2.50;2.30;;;;;;;19.65;36.36;95741.72;4958408;29;20228;-88
2021/06/01 08:34:23;;;;;;;3.20;2.20;;;;;;;19.67;35.57;95743.06;4957742;29;20225;-87
2021/06/01 08:36:51;;;;;;;4.15;2.35;;;;;;;19.68;34.39;95741.25;4956431;29;20243;-88
2021/06/01 08:39:24;;;;;;;3.05;2.22;;;;;;;19.65;33.93;95736.50;4957610;29;20204;-88
2021/06/01 08:41:57;;;;;;;2.78;2.50;;;;;;;19.62;34.59;95736.97;4956866;29;20236;-88
2021/06/01 08:44:28;;;;;;;2.40;2.22;;;;;;;19.58;34.46;95734.00;4955565;29;20228;-89
2021/06/01 08:46:59;;;;;;;3.88;2.38;;;;;;;19.67;34.50;95737.06;4953937;28;20251;-88
2021/06/01 08:49:25;;;;;;;2.85;2.47;;;;;;;19.86;32.75;95732.47;4935206;29;20210;-87
2021/06/01 08:51:51;;;;;;;2.63;2.10;;;;;;;19.94;32.86;95735.53;4955632;29;20256;-87
2021/06/01 08:54:18;;;;;;;2.58;2.38;;;;;;;19.83;32.91;95741.56;4958155;29;20224;-87
2021/06/01 08:56:45;;;;;;;2.42;1.80;;;;;;;19.94;32.51;95738.16;4957557;29;20263;-88
2021/06/01 08:59:13;;;;;;;2.47;2.13;;;;;;;20.16;32.12;95740.16;4955832;29;20196;-89
2021/06/01 09:01:42;;;;;;;2.08;1.90;;;;;;;20.29;31.45;95724.19;4956296;29;20648;-86
2021/06/01 09:04:10;;;;;;;2.85;1.95;;;;;;;20.32;30.78;95734.16;4951187;29;20204;-88
2021/06/01 09:06:41;;;;;;;2.60;2.30;;;;;;;20.28;31.15;95735.66;4954310;29;20205;-86
2021/06/01 09:09:27;;;;;;;3.92;2.10;;;;;;;20.30;32.20;95736.22;4955911;29;20205;-88
2021/06/01 09:12:03;;;;;;;4.90;2.25;;;;;;;20.38;32.11;95727.25;4958626;29;20224;-87
2021/06/01 09:15:00;;;;;;;4.65;2.88;;;;;;;20.55;33.52;95726.25;4956804;29;20252;-87
2021/06/01 09:22:58;;;;;;;2.60;2.40;;;;;;;20.55;32.28;95723.66;4952623;29;20224;-87
2021/06/01 09:25:34;;;;;;;9.05;2.20;;;;;;;20.43;32.88;95722.09;4957563;29;20217;-88
2021/06/01 09:28:01;;;;;;;2.55;2.35;;;;;;;20.66;32.91;95711.50;4958355;29;20203;-88
2021/06/01 09:31:27;;;;;;;3.10;2.50;;;;;;;20.69;33.58;95709.22;4958088;29;20207;-87
2021/06/01 09:33:54;;;;;;;4.80;2.58;;;;;;;20.79;32.55;95707.78;4952095;28;20333;-88
2021/06/01 09:36:25;;;;;;;2.88;2.10;;;;;;;20.89;31.17;95695.69;4948282;29;20241;-87
2021/06/01 09:38:51;;;;;;;2.78;2.30;;;;;;;21.12;32.37;95701.78;4950710;29;20599;-88
2021/06/01 09:41:20;;;;;;;2.70;2.50;;;;;;;21.33;32.24;95695.84;4957639;29;20288;-88
2021/06/01 09:43:52;;;;;;;2.72;2.33;;;;;;;21.50;33.00;95690.56;4956633;29;20193;-89
2021/06/01 09:46:23;;;;;;;3.00;2.70;;;;;;;21.64;32.53;95699.66;4956742;29;20221;-89
2021/06/01 09:48:53;;;;;;;2.33;2.13;;;;;;;21.68;32.16;95698.94;4958559;29;20208;-87
2021/06/01 09:51:38;;;;;;;3.10;2.50;;;;;;;21.69;31.69;95692.66;4959262;29;20227;-88
2021/06/01 09:54:29;;;;;;;2.80;2.53;;;;;;;21.54;33.07;95697.69;4956851;29;20201;-88
2021/06/01 09:56:56;;;;;;;2.80;2.60;;;;;;;21.63;31.94;95696.22;4952952;28;20296;-88
2021/06/01 09:59:23;;;;;;;4.20;2.63;;;;;;;21.71;31.96;95684.53;4957461;29;20238;-87
2021/06/01 10:01:49;;;;;;;2.60;2.40;;;;;;;21.77;31.68;95690.63;4954756;29;20205;-89
2021/06/01 10:04:22;;;;;;;4.15;2.47;;;;;;;21.86;31.37;95683.94;4956029;29;20283;-88
2021/06/01 10:06:50;;;;;;;2.60;2.30;;;;;;;21.93;31.30;95687.97;4956197;29;20208;-87
2021/06/01 10:09:16;;;;;;;2.85;2.65;;;;;;;21.78;30.93;95694.81;4958790;29;20854;-88
2021/06/01 10:11:52;;;;;;;3.75;2.83;;;;;;;21.82;30.14;95681.00;4955519;29;20263;-88
2021/06/01 10:14:18;;;;;;;2.60;2.40;;;;;;;21.94;31.19;95676.41;4955921;28;20209;-89
2021/06/01 10:16:45;;;;;;;3.70;2.30;;;;;;;22.02;30.90;95683.09;4943637;29;20201;-88
2021/06/01 10:19:11;;;;;;;3.25;2.40;;;;;;;22.12;31.12;95687.66;4956445;29;20236;-87
2021/06/01 10:21:37;;;;;;;3.17;2.35;;;;;;;22.34;31.07;95668.19;4955203;28;20853;-87
2021/06/01 10:24:09;;;;;;;2.45;2.25;;;;;;;22.60;31.84;95665.81;4954297;29;20212;-88
2021/06/01 10:26:35;;;;;;;2.47;2.28;;;;;;;22.68;30.67;95668.78;4956236;29;20571;-88
2021/06/01 10:29:02;;;;;;;3.72;2.60;;;;;;;22.66;30.60;95670.88;4956845;29;20204;-88
2021/06/01 10:31:28;;;;;;;4.45;2.30;;;;;;;22.65;30.60;95671.91;4956123;29;20248;-87
2021/06/01 10:33:59;;;;;;;2.83;2.10;;;;;;;22.74;30.63;95665.13;4953926;29;20304;-87
2021/06/01 10:42:29;;;;;;;3.33;2.60;;;;;;;22.85;30.69;95660.81;4943182;29;20209;-86
2021/06/01 10:50:59;;;;;;;2.70;2.30;;;;;;;23.25;31.26;95648.97;4955682;29;20231;-88
2021/06/01 10:53:28;;;;;;;2.42;2.22;;;;;;;23.33;30.61;95662.41;4955359;29;20201;-88
2021/06/01 10:56:04;;;;;;;3.83;2.20;;;;;;;23.24;30.42;95645.56;4956693;29;20220;-87
2021/06/01 11:01:53;;;;;;;2.92;2.17;;;;;;;23.40;30.18;95656.94;4947312;29;20193;-88
2021/06/01 11:04:23;;;;;;;4.95;2.20;;;;;;;23.44;30.94;95655.41;4948761;28;20201;-87
2021/06/01 11:07:15;;;;;;;3.53;2.20;;;;;;;23.37;29.62;95658.25;4953065;29;20269;-88
2021/06/01 11:09:48;;;;;;;4.78;2.55;;;;;;;23.31;30.77;95645.31;4953358;28;20203;-89
2021/06/01 11:12:49;;;;;;;3.80;2.13;;;;;;;23.22;30.18;95646.88;4957628;29;20220;-87
2021/06/01 11:15:23;;;;;;;3.30;2.40;;;;;;;23.31;30.20;95638.22;4877676;29;20250;-88
2021/06/01 11:17:49;;;;;;;3.53;2.10;;;;;;;23.42;29.78;95634.63;4879563;29;20209;-89
2021/06/01 11:20:21;;;;;;;2.50;2.30;;;;;;;23.33;29.59;95632.72;4920166;29;20229;-87
2021/06/01 11:23:02;;;;;;;2.40;2.20;;;;;;;23.31;30.71;95632.97;4958125;28;20271;-88
2021/06/01 11:33:59;;;;;;;2.10;2.00;;;;;;;23.36;29.67;95632.22;4951841;29;20780;-87
2021/06/01 11:36:35;;;;;;;2.85;2.33;;;;;;;23.39;29.18;95624.63;4956893;29;20290;-88
2021/06/01 11:39:26;;;;;;;2.95;2.30;;;;;;;23.21;28.96;95626.88;4955411;29;20254;-87
2021/06/01 11:44:42;;;;;;;4.60;2.45;;;;;;;23.22;29.41;95628.47;4952780;29;20271;-89
2021/06/01 11:47:15;;;;;;;2.85;2.53;;;;;;;23.24;29.47;95624.56;4957561;29;20228;-89
2021/06/01 11:52:29;;;;;;;4.72;2.33;;;;;;;23.45;29.39;95628.06;4957192;29;20236;-88
2021/06/01 11:54:55;;;;;;;2.97;2.42;;;;;;;23.35;29.09;95615.66;4955532;29;21011;-87
2021/06/01 11:57:26;;;;;;;3.85;2.40;;;;;;;23.43;30.19;95615.19;4956190;29;20209;-88
2021/06/01 12:02:55;;;;;;;3.05;2.70;;;;;;;23.55;30.03;95607.09;4956199;29;20220;-86
2021/06/01 12:13:52;;;;;;;2.65;2.45;;;;;;;23.67;29.20;95596.34;4955219;29;20336;-88
2021/06/01 12:19:08;;;;;;;3.92;2.70;;;;;;;23.78;29.48;95576.94;4956003;29;20211;-88
2021/06/01 12:21:39;;;;;;;3.78;2.30;;;;;;;23.59;30.83;95584.50;4956175;28;20287;-87
2021/06/01 12:24:14;;;;;;;2.58;2.38;;;;;;;23.68;29.52;95584.78;4955340;29;20217;-88
2021/06/01 12:26:47;;;;;;;3.13;2.58;;;;;;;23.68;30.53;95580.31;4957570;29;20228;-87
2021/06/01 12:32:07;;;;;;;2.53;2.33;;;;;;;23.76;29.44;95579.03;4953796;29;20256;-88
2021/06/01 12:34:52;;;;;;;3.40;2.28;;;;;;;23.73;29.38;95566.41;4955269;29;20220;-87
2021/06/01 12:43:07;;;;;;;3.33;2.22;;;;;;;23.72;28.21;95568.25;4955786;29;20211;-88